sensor_id;sensor_type;location;lat;lon;timestamp;P1;durP1;ratioP1;P2;durP2;ratioP2
56770;SDS011;42641;59.794;17.616;2023-05-17T00:00:37;8.90;;;8.00;;
56770;SDS011;42641;59.794;17.616;2023-05-17T00:03:03;8.13;;;7.43;;
56770;SDS011;42641;59.794;17.616;2023-05-17T00:05:30;8.77;;;7.97;;
56770;SDS011;42641;59.794;17.616;2023-05-17T00:07:56;9.90;;;7.70;;
56770;SDS011;42641;59.794;17.616;2023-05-17T00:10:22;8.30;;;7.53;;
56770;SDS011;42641;59.794;17.616;2023-05-17T00:12:49;9.63;;;7.33;;
56770;SDS011;42641;59.794;17.616;2023-05-17T00:15:15;8.57;;;7.70;;
56770;SDS011;42641;59.794;17.616;2023-05-17T00:17:42;8.73;;;7.93;;
56770;SDS011;42641;59.794;17.616;2023-05-17T00:20:08;8.80;;;7.90;;
56770;SDS011;42641;59.794;17.616;2023-05-17T00:22:35;9.00;;;8.20;;
56770;SDS011;42641;59.794;17.616;2023-05-17T00:25:01;9.10;;;8.20;;
56770;SDS011;42641;59.794;17.616;2023-05-17T00:27:28;9.20;;;8.30;;
56770;SDS011;42641;59.794;17.616;2023-05-17T00:29:55;10.60;;;8.00;;
56770;SDS011;42641;59.794;17.616;2023-05-17T00:32:21;8.23;;;7.53;;
56770;SDS011;42641;59.794;17.616;2023-05-17T00:34:49;8.33;;;7.47;;
56770;SDS011;42641;59.794;17.616;2023-05-17T00:37:15;8.87;;;7.97;;
56770;SDS011;42641;59.794;17.616;2023-05-17T00:39:42;8.85;;;7.65;;
56770;SDS011;42641;59.794;17.616;2023-05-17T00:42:08;8.47;;;7.73;;
56770;SDS011;42641;59.794;17.616;2023-05-17T00:44:36;9.83;;;7.10;;
56770;SDS011;42641;59.794;17.616;2023-05-17T00:47:02;7.63;;;6.93;;
56770;SDS011;42641;59.794;17.616;2023-05-17T00:49:29;9.07;;;7.00;;
56770;SDS011;42641;59.794;17.616;2023-05-17T00:51:55;8.07;;;7.30;;
56770;SDS011;42641;59.794;17.616;2023-05-17T00:54:22;7.47;;;6.77;;
56770;SDS011;42641;59.794;17.616;2023-05-17T00:56:53;7.90;;;7.00;;
56770;SDS011;42641;59.794;17.616;2023-05-17T00:59:21;6.93;;;6.33;;
56770;SDS011;42641;59.794;17.616;2023-05-17T01:01:48;7.40;;;6.60;;
56770;SDS011;42641;59.794;17.616;2023-05-17T01:04:16;8.40;;;7.20;;
56770;SDS011;42641;59.794;17.616;2023-05-17T01:06:43;8.17;;;7.47;;
56770;SDS011;42641;59.794;17.616;2023-05-17T01:09:10;7.83;;;7.03;;
56770;SDS011;42641;59.794;17.616;2023-05-17T01:11:41;8.00;;;7.30;;
56770;SDS011;42641;59.794;17.616;2023-05-17T01:17:51;7.97;;;7.27;;
56770;SDS011;42641;59.794;17.616;2023-05-17T01:20:17;8.00;;;7.30;;
56770;SDS011;42641;59.794;17.616;2023-05-17T01:22:50;7.60;;;6.93;;
56770;SDS011;42641;59.794;17.616;2023-05-17T01:27:58;7.20;;;6.50;;
56770;SDS011;42641;59.794;17.616;2023-05-17T01:30:27;7.83;;;6.90;;
56770;SDS011;42641;59.794;17.616;2023-05-17T01:32:55;7.40;;;6.70;;
56770;SDS011;42641;59.794;17.616;2023-05-17T01:35:26;7.40;;;6.70;;
56770;SDS011;42641;59.794;17.616;2023-05-17T01:37:52;7.10;;;6.40;;
56770;SDS011;42641;59.794;17.616;2023-05-17T01:40:19;7.63;;;6.93;;
56770;SDS011;42641;59.794;17.616;2023-05-17T01:42:48;7.23;;;6.63;;
56770;SDS011;42641;59.794;17.616;2023-05-17T01:50:40;12.30;;;7.27;;
56770;SDS011;42641;59.794;17.616;2023-05-17T01:53:16;6.07;;;5.50;;
56770;SDS011;42641;59.794;17.616;2023-05-17T01:56:00;6.47;;;5.97;;
56770;SDS011;42641;59.794;17.616;2023-05-17T01:58:35;6.33;;;5.73;;
56770;SDS011;42641;59.794;17.616;2023-05-17T02:01:07;7.03;;;5.53;;
56770;SDS011;42641;59.794;17.616;2023-05-17T02:03:33;7.60;;;6.00;;
56770;SDS011;42641;59.794;17.616;2023-05-17T02:06:00;6.37;;;5.83;;
56770;SDS011;42641;59.794;17.616;2023-05-17T02:08:26;5.90;;;5.40;;
56770;SDS011;42641;59.794;17.616;2023-05-17T02:10:53;6.37;;;5.50;;
56770;SDS011;42641;59.794;17.616;2023-05-17T02:13:19;6.50;;;5.90;;
56770;SDS011;42641;59.794;17.616;2023-05-17T02:15:46;6.37;;;5.87;;
56770;SDS011;42641;59.794;17.616;2023-05-17T02:18:12;5.40;;;4.90;;
56770;SDS011;42641;59.794;17.616;2023-05-17T02:20:38;5.90;;;5.40;;
56770;SDS011;42641;59.794;17.616;2023-05-17T02:23:06;6.30;;;5.70;;
56770;SDS011;42641;59.794;17.616;2023-05-17T02:25:33;5.97;;;5.37;;
56770;SDS011;42641;59.794;17.616;2023-05-17T02:27:59;5.77;;;5.20;;
56770;SDS011;42641;59.794;17.616;2023-05-17T02:30:26;6.07;;;5.57;;
56770;SDS011;42641;59.794;17.616;2023-05-17T02:32:53;6.00;;;5.43;;
56770;SDS011;42641;59.794;17.616;2023-05-17T02:35:21;5.80;;;5.30;;
56770;SDS011;42641;59.794;17.616;2023-05-17T02:37:50;6.47;;;5.70;;
56770;SDS011;42641;59.794;17.616;2023-05-17T02:40:16;6.97;;;5.40;;
56770;SDS011;42641;59.794;17.616;2023-05-17T02:42:43;6.00;;;5.50;;
56770;SDS011;42641;59.794;17.616;2023-05-17T02:45:09;5.40;;;4.90;;
56770;SDS011;42641;59.794;17.616;2023-05-17T02:47:36;5.70;;;5.20;;
56770;SDS011;42641;59.794;17.616;2023-05-17T02:50:02;5.47;;;5.07;;
56770;SDS011;42641;59.794;17.616;2023-05-17T02:52:30;5.53;;;5.00;;
56770;SDS011;42641;59.794;17.616;2023-05-17T02:54:57;5.33;;;4.87;;
56770;SDS011;42641;59.794;17.616;2023-05-17T02:57:23;5.30;;;4.63;;
56770;SDS011;42641;59.794;17.616;2023-05-17T02:59:50;5.30;;;4.80;;
56770;SDS011;42641;59.794;17.616;2023-05-17T03:02:16;5.20;;;4.70;;
56770;SDS011;42641;59.794;17.616;2023-05-17T03:04:43;5.30;;;4.80;;
56770;SDS011;42641;59.794;17.616;2023-05-17T03:07:09;4.90;;;4.50;;
56770;SDS011;42641;59.794;17.616;2023-05-17T03:09:37;5.27;;;4.87;;
56770;SDS011;42641;59.794;17.616;2023-05-17T03:12:04;5.43;;;5.00;;
56770;SDS011;42641;59.794;17.616;2023-05-17T03:14:33;5.83;;;5.23;;
56770;SDS011;42641;59.794;17.616;2023-05-17T03:17:00;5.40;;;4.90;;
56770;SDS011;42641;59.794;17.616;2023-05-17T03:19:27;5.20;;;4.80;;
56770;SDS011;42641;59.794;17.616;2023-05-17T03:21:53;5.30;;;4.50;;
56770;SDS011;42641;59.794;17.616;2023-05-17T03:24:20;5.23;;;4.73;;
56770;SDS011;42641;59.794;17.616;2023-05-17T03:26:49;4.97;;;4.47;;
56770;SDS011;42641;59.794;17.616;2023-05-17T03:29:16;5.10;;;4.70;;
56770;SDS011;42641;59.794;17.616;2023-05-17T03:31:44;6.70;;;5.23;;
56770;SDS011;42641;59.794;17.616;2023-05-17T03:34:11;5.67;;;4.47;;
56770;SDS011;42641;59.794;17.616;2023-05-17T03:36:38;5.83;;;5.20;;
56770;SDS011;42641;59.794;17.616;2023-05-17T03:39:05;5.00;;;4.60;;
56770;SDS011;42641;59.794;17.616;2023-05-17T03:41:33;5.63;;;5.10;;
56770;SDS011;42641;59.794;17.616;2023-05-17T03:44:00;5.07;;;4.57;;
56770;SDS011;42641;59.794;17.616;2023-05-17T03:46:26;6.50;;;4.97;;
56770;SDS011;42641;59.794;17.616;2023-05-17T03:48:53;4.97;;;4.37;;
56770;SDS011;42641;59.794;17.616;2023-05-17T03:51:20;5.20;;;4.77;;
56770;SDS011;42641;59.794;17.616;2023-05-17T03:53:47;4.93;;;4.53;;
56770;SDS011;42641;59.794;17.616;2023-05-17T03:56:15;5.73;;;5.23;;
56770;SDS011;42641;59.794;17.616;2023-05-17T03:58:42;5.00;;;4.60;;
56770;SDS011;42641;59.794;17.616;2023-05-17T04:01:10;4.87;;;4.47;;
56770;SDS011;42641;59.794;17.616;2023-05-17T04:03:36;4.87;;;4.43;;
56770;SDS011;42641;59.794;17.616;2023-05-17T04:06:05;4.80;;;4.40;;
56770;SDS011;42641;59.794;17.616;2023-05-17T04:08:33;5.67;;;5.00;;
56770;SDS011;42641;59.794;17.616;2023-05-17T04:11:00;5.00;;;4.60;;
56770;SDS011;42641;59.794;17.616;2023-05-17T04:13:36;4.57;;;4.17;;
56770;SDS011;42641;59.794;17.616;2023-05-17T04:16:02;4.80;;;4.40;;
56770;SDS011;42641;59.794;17.616;2023-05-17T04:18:31;5.03;;;4.60;;
56770;SDS011;42641;59.794;17.616;2023-05-17T04:21:02;4.87;;;4.47;;
56770;SDS011;42641;59.794;17.616;2023-05-17T04:23:30;5.30;;;4.67;;
56770;SDS011;42641;59.794;17.616;2023-05-17T04:25:58;4.50;;;4.10;;
56770;SDS011;42641;59.794;17.616;2023-05-17T04:28:26;4.83;;;4.33;;
56770;SDS011;42641;59.794;17.616;2023-05-17T04:30:52;5.20;;;4.70;;
56770;SDS011;42641;59.794;17.616;2023-05-17T04:33:21;5.03;;;4.53;;
56770;SDS011;42641;59.794;17.616;2023-05-17T04:35:49;5.43;;;4.93;;
56770;SDS011;42641;59.794;17.616;2023-05-17T04:38:16;8.70;;;4.87;;
56770;SDS011;42641;59.794;17.616;2023-05-17T04:40:44;7.67;;;5.90;;
56770;SDS011;42641;59.794;17.616;2023-05-17T04:43:10;6.40;;;5.67;;
56770;SDS011;42641;59.794;17.616;2023-05-17T04:45:37;5.77;;;5.17;;
56770;SDS011;42641;59.794;17.616;2023-05-17T04:48:04;6.67;;;5.97;;
56770;SDS011;42641;59.794;17.616;2023-05-17T04:50:31;6.10;;;5.53;;
56770;SDS011;42641;59.794;17.616;2023-05-17T04:52:57;7.13;;;6.43;;
56770;SDS011;42641;59.794;17.616;2023-05-17T04:55:24;6.07;;;5.47;;
56770;SDS011;42641;59.794;17.616;2023-05-17T04:57:50;7.10;;;6.50;;
56770;SDS011;42641;59.794;17.616;2023-05-17T05:00:17;8.20;;;6.53;;
56770;SDS011;42641;59.794;17.616;2023-05-17T05:02:51;8.27;;;6.23;;
56770;SDS011;42641;59.794;17.616;2023-05-17T05:05:17;6.50;;;5.90;;
56770;SDS011;42641;59.794;17.616;2023-05-17T05:07:45;8.53;;;5.67;;
56770;SDS011;42641;59.794;17.616;2023-05-17T05:10:12;5.97;;;5.37;;
56770;SDS011;42641;59.794;17.616;2023-05-17T05:12:39;8.00;;;6.30;;
56770;SDS011;42641;59.794;17.616;2023-05-17T05:15:06;6.37;;;5.70;;
56770;SDS011;42641;59.794;17.616;2023-05-17T05:17:35;6.10;;;5.10;;
56770;SDS011;42641;59.794;17.616;2023-05-17T05:20:01;6.73;;;6.03;;
56770;SDS011;42641;59.794;17.616;2023-05-17T05:22:28;5.50;;;5.00;;
56770;SDS011;42641;59.794;17.616;2023-05-17T05:24:54;6.83;;;5.30;;
56770;SDS011;42641;59.794;17.616;2023-05-17T05:27:22;5.40;;;4.90;;
56770;SDS011;42641;59.794;17.616;2023-05-17T05:29:50;5.53;;;5.03;;
56770;SDS011;42641;59.794;17.616;2023-05-17T05:32:16;5.97;;;5.27;;
56770;SDS011;42641;59.794;17.616;2023-05-17T05:34:45;6.13;;;5.27;;
56770;SDS011;42641;59.794;17.616;2023-05-17T05:37:12;6.37;;;5.70;;
56770;SDS011;42641;59.794;17.616;2023-05-17T05:39:38;6.67;;;6.10;;
56770;SDS011;42641;59.794;17.616;2023-05-17T05:42:05;4.40;;;4.00;;
56770;SDS011;42641;59.794;17.616;2023-05-17T05:44:32;2.83;;;2.43;;
56770;SDS011;42641;59.794;17.616;2023-05-17T05:46:59;2.20;;;2.00;;
56770;SDS011;42641;59.794;17.616;2023-05-17T05:49:25;3.77;;;2.03;;
56770;SDS011;42641;59.794;17.616;2023-05-17T05:51:53;2.20;;;1.77;;
56770;SDS011;42641;59.794;17.616;2023-05-17T05:54:19;4.03;;;2.33;;
56770;SDS011;42641;59.794;17.616;2023-05-17T05:56:46;3.97;;;1.70;;
56770;SDS011;42641;59.794;17.616;2023-05-17T05:59:15;2.30;;;1.77;;
56770;SDS011;42641;59.794;17.616;2023-05-17T06:01:41;2.23;;;1.90;;
56770;SDS011;42641;59.794;17.616;2023-05-17T06:04:08;1.80;;;1.60;;
56770;SDS011;42641;59.794;17.616;2023-05-17T06:06:34;1.70;;;1.60;;
56770;SDS011;42641;59.794;17.616;2023-05-17T06:09:01;1.80;;;1.70;;
56770;SDS011;42641;59.794;17.616;2023-05-17T06:11:28;3.37;;;1.97;;
56770;SDS011;42641;59.794;17.616;2023-05-17T06:13:54;1.60;;;1.50;;
56770;SDS011;42641;59.794;17.616;2023-05-17T06:16:21;13.43;;;1.83;;
56770;SDS011;42641;59.794;17.616;2023-05-17T06:18:47;2.83;;;1.47;;
56770;SDS011;42641;59.794;17.616;2023-05-17T06:21:14;1.47;;;1.37;;
56770;SDS011;42641;59.794;17.616;2023-05-17T06:23:40;1.53;;;0.90;;
56770;SDS011;42641;59.794;17.616;2023-05-17T06:26:07;1.10;;;1.10;;
56770;SDS011;42641;59.794;17.616;2023-05-17T06:28:38;2.90;;;1.23;;
56770;SDS011;42641;59.794;17.616;2023-05-17T06:31:04;1.83;;;1.30;;
56770;SDS011;42641;59.794;17.616;2023-05-17T06:33:31;2.17;;;1.03;;
56770;SDS011;42641;59.794;17.616;2023-05-17T06:35:57;1.20;;;0.93;;
56770;SDS011;42641;59.794;17.616;2023-05-17T06:38:23;3.67;;;2.00;;
56770;SDS011;42641;59.794;17.616;2023-05-17T06:40:51;1.70;;;0.87;;
56770;SDS011;42641;59.794;17.616;2023-05-17T06:43:19;2.43;;;1.20;;
56770;SDS011;42641;59.794;17.616;2023-05-17T06:45:45;7.73;;;1.27;;
56770;SDS011;42641;59.794;17.616;2023-05-17T06:48:12;2.77;;;1.00;;
56770;SDS011;42641;59.794;17.616;2023-05-17T06:50:38;2.07;;;0.87;;
56770;SDS011;42641;59.794;17.616;2023-05-17T06:53:05;0.67;;;0.67;;
56770;SDS011;42641;59.794;17.616;2023-05-17T06:55:31;5.23;;;0.63;;
56770;SDS011;42641;59.794;17.616;2023-05-17T06:57:57;0.87;;;0.80;;
56770;SDS011;42641;59.794;17.616;2023-05-17T07:00:25;1.60;;;1.07;;
56770;SDS011;42641;59.794;17.616;2023-05-17T07:02:51;1.90;;;0.60;;
56770;SDS011;42641;59.794;17.616;2023-05-17T07:05:18;0.60;;;0.60;;
56770;SDS011;42641;59.794;17.616;2023-05-17T07:07:46;3.20;;;0.67;;
56770;SDS011;42641;59.794;17.616;2023-05-17T07:10:12;1.57;;;0.47;;
56770;SDS011;42641;59.794;17.616;2023-05-17T07:12:38;0.97;;;0.60;;
56770;SDS011;42641;59.794;17.616;2023-05-17T07:15:05;1.57;;;0.67;;
56770;SDS011;42641;59.794;17.616;2023-05-17T07:17:32;0.50;;;0.30;;
56770;SDS011;42641;59.794;17.616;2023-05-17T07:19:58;0.30;;;0.30;;
56770;SDS011;42641;59.794;17.616;2023-05-17T07:22:25;2.63;;;0.40;;
56770;SDS011;42641;59.794;17.616;2023-05-17T07:24:51;0.20;;;0.20;;
56770;SDS011;42641;59.794;17.616;2023-05-17T07:27:17;0.27;;;0.27;;
56770;SDS011;42641;59.794;17.616;2023-05-17T07:32:40;0.87;;;0.40;;
56770;SDS011;42641;59.794;17.616;2023-05-17T07:35:06;2.80;;;0.57;;
56770;SDS011;42641;59.794;17.616;2023-05-17T07:37:33;0.67;;;0.50;;
56770;SDS011;42641;59.794;17.616;2023-05-17T07:39:59;1.20;;;0.50;;
56770;SDS011;42641;59.794;17.616;2023-05-17T07:42:26;0.50;;;0.50;;
56770;SDS011;42641;59.794;17.616;2023-05-17T07:44:52;0.60;;;0.30;;
56770;SDS011;42641;59.794;17.616;2023-05-17T07:47:19;0.30;;;0.30;;
56770;SDS011;42641;59.794;17.616;2023-05-17T07:49:45;0.77;;;0.70;;
56770;SDS011;42641;59.794;17.616;2023-05-17T07:52:12;1.07;;;0.70;;
56770;SDS011;42641;59.794;17.616;2023-05-17T07:54:38;0.60;;;0.60;;
56770;SDS011;42641;59.794;17.616;2023-05-17T07:57:04;0.30;;;0.30;;
56770;SDS011;42641;59.794;17.616;2023-05-17T07:59:31;0.60;;;0.60;;
56770;SDS011;42641;59.794;17.616;2023-05-17T08:01:57;0.60;;;0.60;;
56770;SDS011;42641;59.794;17.616;2023-05-17T08:04:24;0.90;;;0.47;;
56770;SDS011;42641;59.794;17.616;2023-05-17T08:06:50;0.90;;;0.43;;
56770;SDS011;42641;59.794;17.616;2023-05-17T08:09:17;1.03;;;0.73;;
56770;SDS011;42641;59.794;17.616;2023-05-17T08:11:44;0.60;;;0.60;;
56770;SDS011;42641;59.794;17.616;2023-05-17T08:14:12;0.97;;;0.87;;
56770;SDS011;42641;59.794;17.616;2023-05-17T08:16:42;0.80;;;0.80;;
56770;SDS011;42641;59.794;17.616;2023-05-17T08:19:10;1.90;;;0.70;;
56770;SDS011;42641;59.794;17.616;2023-05-17T08:21:43;1.23;;;0.77;;
56770;SDS011;42641;59.794;17.616;2023-05-17T08:24:11;0.73;;;0.73;;
56770;SDS011;42641;59.794;17.616;2023-05-17T08:26:37;0.87;;;0.80;;
56770;SDS011;42641;59.794;17.616;2023-05-17T08:29:04;0.97;;;0.80;;
56770;SDS011;42641;59.794;17.616;2023-05-17T08:31:31;0.80;;;0.80;;
56770;SDS011;42641;59.794;17.616;2023-05-17T08:33:57;1.33;;;1.00;;
56770;SDS011;42641;59.794;17.616;2023-05-17T08:36:24;1.07;;;1.00;;
56770;SDS011;42641;59.794;17.616;2023-05-17T08:38:50;1.20;;;1.10;;
56770;SDS011;42641;59.794;17.616;2023-05-17T08:41:17;0.90;;;0.90;;
56770;SDS011;42641;59.794;17.616;2023-05-17T08:43:44;1.87;;;1.10;;
56770;SDS011;42641;59.794;17.616;2023-05-17T08:46:10;8.67;;;1.90;;
56770;SDS011;42641;59.794;17.616;2023-05-17T08:48:38;0.97;;;0.90;;
56770;SDS011;42641;59.794;17.616;2023-05-17T08:51:07;0.90;;;0.90;;
56770;SDS011;42641;59.794;17.616;2023-05-17T08:53:37;1.13;;;1.03;;
56770;SDS011;42641;59.794;17.616;2023-05-17T08:56:03;0.80;;;0.80;;
56770;SDS011;42641;59.794;17.616;2023-05-17T08:58:32;1.07;;;0.97;;
56770;SDS011;42641;59.794;17.616;2023-05-17T09:01:05;2.00;;;1.03;;
56770;SDS011;42641;59.794;17.616;2023-05-17T09:03:33;0.70;;;0.70;;
56770;SDS011;42641;59.794;17.616;2023-05-17T09:06:01;1.53;;;0.90;;
56770;SDS011;42641;59.794;17.616;2023-05-17T09:08:28;3.63;;;1.10;;
56770;SDS011;42641;59.794;17.616;2023-05-17T09:10:57;1.23;;;1.00;;
56770;SDS011;42641;59.794;17.616;2023-05-17T09:13:24;1.27;;;0.90;;
56770;SDS011;42641;59.794;17.616;2023-05-17T09:15:51;1.37;;;1.07;;
56770;SDS011;42641;59.794;17.616;2023-05-17T09:18:27;1.00;;;0.90;;
56770;SDS011;42641;59.794;17.616;2023-05-17T09:21:02;0.90;;;0.90;;
56770;SDS011;42641;59.794;17.616;2023-05-17T09:23:30;0.90;;;0.90;;
56770;SDS011;42641;59.794;17.616;2023-05-17T09:26:05;0.80;;;0.80;;
56770;SDS011;42641;59.794;17.616;2023-05-17T09:28:38;0.80;;;0.80;;
56770;SDS011;42641;59.794;17.616;2023-05-17T09:31:06;1.03;;;0.93;;
56770;SDS011;42641;59.794;17.616;2023-05-17T09:33:42;1.77;;;0.80;;
56770;SDS011;42641;59.794;17.616;2023-05-17T09:36:19;0.83;;;0.83;;
56770;SDS011;42641;59.794;17.616;2023-05-17T09:38:51;1.10;;;1.00;;
56770;SDS011;42641;59.794;17.616;2023-05-17T09:41:18;0.80;;;0.73;;
56770;SDS011;42641;59.794;17.616;2023-05-17T09:43:44;0.73;;;0.73;;
56770;SDS011;42641;59.794;17.616;2023-05-17T09:46:11;0.87;;;0.70;;
56770;SDS011;42641;59.794;17.616;2023-05-17T09:48:37;1.00;;;1.00;;
56770;SDS011;42641;59.794;17.616;2023-05-17T09:51:04;2.83;;;0.90;;
56770;SDS011;42641;59.794;17.616;2023-05-17T09:53:32;1.23;;;0.80;;
56770;SDS011;42641;59.794;17.616;2023-05-17T09:56:04;2.23;;;1.00;;
56770;SDS011;42641;59.794;17.616;2023-05-17T09:58:35;0.77;;;0.77;;
56770;SDS011;42641;59.794;17.616;2023-05-17T10:01:03;0.70;;;0.70;;
56770;SDS011;42641;59.794;17.616;2023-05-17T10:03:37;0.60;;;0.60;;
56770;SDS011;42641;59.794;17.616;2023-05-17T10:06:07;0.63;;;0.63;;
56770;SDS011;42641;59.794;17.616;2023-05-17T10:08:34;1.00;;;0.60;;
56770;SDS011;42641;59.794;17.616;2023-05-17T10:11:07;0.93;;;0.70;;
56770;SDS011;42641;59.794;17.616;2023-05-17T10:13:48;1.33;;;0.70;;
56770;SDS011;42641;59.794;17.616;2023-05-17T10:16:19;1.93;;;0.70;;
56770;SDS011;42641;59.794;17.616;2023-05-17T10:18:48;0.60;;;0.60;;
56770;SDS011;42641;59.794;17.616;2023-05-17T10:21:14;0.33;;;0.33;;
56770;SDS011;42641;59.794;17.616;2023-05-17T10:23:42;0.93;;;0.70;;
56770;SDS011;42641;59.794;17.616;2023-05-17T10:26:11;1.03;;;0.80;;
56770;SDS011;42641;59.794;17.616;2023-05-17T10:28:40;2.00;;;1.00;;
56770;SDS011;42641;59.794;17.616;2023-05-17T10:31:08;0.63;;;0.63;;
56770;SDS011;42641;59.794;17.616;2023-05-17T10:33:34;0.60;;;0.60;;
56770;SDS011;42641;59.794;17.616;2023-05-17T10:36:02;0.60;;;0.60;;
56770;SDS011;42641;59.794;17.616;2023-05-17T10:38:31;1.60;;;0.60;;
56770;SDS011;42641;59.794;17.616;2023-05-17T10:40:57;0.60;;;0.60;;
56770;SDS011;42641;59.794;17.616;2023-05-17T10:43:24;1.00;;;0.90;;
56770;SDS011;42641;59.794;17.616;2023-05-17T10:45:53;1.67;;;0.80;;
56770;SDS011;42641;59.794;17.616;2023-05-17T10:48:20;1.87;;;0.90;;
56770;SDS011;42641;59.794;17.616;2023-05-17T10:50:46;0.50;;;0.50;;
56770;SDS011;42641;59.794;17.616;2023-05-17T10:53:14;2.23;;;0.70;;
56770;SDS011;42641;59.794;17.616;2023-05-17T10:55:41;0.60;;;0.60;;
56770;SDS011;42641;59.794;17.616;2023-05-17T11:00:37;0.90;;;0.90;;
56770;SDS011;42641;59.794;17.616;2023-05-17T11:03:15;0.77;;;0.77;;
56770;SDS011;42641;59.794;17.616;2023-05-17T11:05:44;0.70;;;0.70;;
56770;SDS011;42641;59.794;17.616;2023-05-17T11:08:30;0.63;;;0.63;;
56770;SDS011;42641;59.794;17.616;2023-05-17T11:11:10;0.73;;;0.70;;
56770;SDS011;42641;59.794;17.616;2023-05-17T11:13:45;0.73;;;0.73;;
56770;SDS011;42641;59.794;17.616;2023-05-17T11:16:17;0.73;;;0.53;;
56770;SDS011;42641;59.794;17.616;2023-05-17T11:18:47;0.40;;;0.40;;
56770;SDS011;42641;59.794;17.616;2023-05-17T11:21:13;0.63;;;0.50;;
56770;SDS011;42641;59.794;17.616;2023-05-17T11:23:44;0.40;;;0.40;;
56770;SDS011;42641;59.794;17.616;2023-05-17T11:29:10;0.60;;;0.60;;
56770;SDS011;42641;59.794;17.616;2023-05-17T11:31:41;1.33;;;0.60;;
56770;SDS011;42641;59.794;17.616;2023-05-17T11:34:16;0.70;;;0.70;;
56770;SDS011;42641;59.794;17.616;2023-05-17T11:36:53;0.67;;;0.67;;
56770;SDS011;42641;59.794;17.616;2023-05-17T11:39:23;0.47;;;0.47;;
56770;SDS011;42641;59.794;17.616;2023-05-17T11:41:54;0.43;;;0.43;;
56770;SDS011;42641;59.794;17.616;2023-05-17T11:44:22;0.40;;;0.40;;
56770;SDS011;42641;59.794;17.616;2023-05-17T11:46:50;0.83;;;0.50;;
56770;SDS011;42641;59.794;17.616;2023-05-17T11:49:16;0.50;;;0.50;;
56770;SDS011;42641;59.794;17.616;2023-05-17T11:51:44;0.60;;;0.60;;
56770;SDS011;42641;59.794;17.616;2023-05-17T11:54:11;2.87;;;0.57;;
56770;SDS011;42641;59.794;17.616;2023-05-17T11:56:40;0.37;;;0.37;;
56770;SDS011;42641;59.794;17.616;2023-05-17T11:59:08;0.63;;;0.50;;
56770;SDS011;42641;59.794;17.616;2023-05-17T12:01:44;0.40;;;0.40;;
56770;SDS011;42641;59.794;17.616;2023-05-17T12:04:12;0.37;;;0.37;;
56770;SDS011;42641;59.794;17.616;2023-05-17T12:06:38;0.93;;;0.40;;
56770;SDS011;42641;59.794;17.616;2023-05-17T12:09:06;0.40;;;0.40;;
56770;SDS011;42641;59.794;17.616;2023-05-17T12:11:35;2.10;;;0.70;;
56770;SDS011;42641;59.794;17.616;2023-05-17T12:14:04;0.30;;;0.30;;
56770;SDS011;42641;59.794;17.616;2023-05-17T12:16:31;1.13;;;0.40;;
56770;SDS011;42641;59.794;17.616;2023-05-17T12:19:00;0.20;;;0.20;;
56770;SDS011;42641;59.794;17.616;2023-05-17T12:21:27;0.30;;;0.30;;
56770;SDS011;42641;59.794;17.616;2023-05-17T12:23:54;1.80;;;0.30;;
56770;SDS011;42641;59.794;17.616;2023-05-17T12:26:21;1.07;;;0.20;;
56770;SDS011;42641;59.794;17.616;2023-05-17T12:28:55;0.20;;;0.20;;
56770;SDS011;42641;59.794;17.616;2023-05-17T12:34:04;1.50;;;0.50;;
56770;SDS011;42641;59.794;17.616;2023-05-17T12:36:31;0.80;;;0.43;;
56770;SDS011;42641;59.794;17.616;2023-05-17T12:38:59;0.40;;;0.40;;
56770;SDS011;42641;59.794;17.616;2023-05-17T12:41:27;2.13;;;0.53;;
56770;SDS011;42641;59.794;17.616;2023-05-17T12:43:55;0.40;;;0.40;;
56770;SDS011;42641;59.794;17.616;2023-05-17T12:46:22;0.20;;;0.20;;
56770;SDS011;42641;59.794;17.616;2023-05-17T12:48:49;0.30;;;0.30;;
56770;SDS011;42641;59.794;17.616;2023-05-17T12:51:17;0.30;;;0.30;;
56770;SDS011;42641;59.794;17.616;2023-05-17T12:53:49;0.23;;;0.23;;
56770;SDS011;42641;59.794;17.616;2023-05-17T12:56:19;0.60;;;0.40;;
56770;SDS011;42641;59.794;17.616;2023-05-17T13:01:36;0.30;;;0.30;;
56770;SDS011;42641;59.794;17.616;2023-05-17T13:04:29;0.30;;;0.30;;
56770;SDS011;42641;59.794;17.616;2023-05-17T13:07:00;0.20;;;0.20;;
56770;SDS011;42641;59.794;17.616;2023-05-17T13:09:29;0.50;;;0.50;;
56770;SDS011;42641;59.794;17.616;2023-05-17T13:11:57;0.50;;;0.50;;
56770;SDS011;42641;59.794;17.616;2023-05-17T13:14:42;0.43;;;0.40;;
56770;SDS011;42641;59.794;17.616;2023-05-17T13:17:23;0.47;;;0.40;;
56770;SDS011;42641;59.794;17.616;2023-05-17T13:19:52;2.10;;;0.50;;
56770;SDS011;42641;59.794;17.616;2023-05-17T13:22:19;0.40;;;0.40;;
56770;SDS011;42641;59.794;17.616;2023-05-17T13:24:46;0.77;;;0.60;;
56770;SDS011;42641;59.794;17.616;2023-05-17T13:27:12;1.07;;;0.60;;
56770;SDS011;42641;59.794;17.616;2023-05-17T13:29:40;1.20;;;0.50;;
56770;SDS011;42641;59.794;17.616;2023-05-17T13:32:08;0.27;;;0.27;;
56770;SDS011;42641;59.794;17.616;2023-05-17T13:34:36;1.13;;;0.50;;
56770;SDS011;42641;59.794;17.616;2023-05-17T13:37:03;0.60;;;0.47;;
56770;SDS011;42641;59.794;17.616;2023-05-17T13:39:30;0.50;;;0.50;;
56770;SDS011;42641;59.794;17.616;2023-05-17T13:41:56;0.60;;;0.60;;
56770;SDS011;42641;59.794;17.616;2023-05-17T13:44:23;3.40;;;0.70;;
56770;SDS011;42641;59.794;17.616;2023-05-17T13:46:50;0.50;;;0.50;;
56770;SDS011;42641;59.794;17.616;2023-05-17T13:49:17;0.53;;;0.40;;
56770;SDS011;42641;59.794;17.616;2023-05-17T13:51:43;0.37;;;0.30;;
56770;SDS011;42641;59.794;17.616;2023-05-17T13:54:10;1.17;;;0.67;;
56770;SDS011;42641;59.794;17.616;2023-05-17T13:56:37;1.50;;;0.57;;
56770;SDS011;42641;59.794;17.616;2023-05-17T13:59:04;0.60;;;0.60;;
56770;SDS011;42641;59.794;17.616;2023-05-17T14:01:30;0.77;;;0.70;;
56770;SDS011;42641;59.794;17.616;2023-05-17T14:03:56;0.50;;;0.50;;
56770;SDS011;42641;59.794;17.616;2023-05-17T14:06:25;3.03;;;0.70;;
56770;SDS011;42641;59.794;17.616;2023-05-17T14:08:51;1.57;;;0.50;;
56770;SDS011;42641;59.794;17.616;2023-05-17T14:11:19;2.63;;;0.70;;
56770;SDS011;42641;59.794;17.616;2023-05-17T14:13:46;0.67;;;0.57;;
56770;SDS011;42641;59.794;17.616;2023-05-17T14:16:13;1.10;;;0.70;;
56770;SDS011;42641;59.794;17.616;2023-05-17T14:18:39;0.73;;;0.70;;
56770;SDS011;42641;59.794;17.616;2023-05-17T14:21:05;0.70;;;0.60;;
56770;SDS011;42641;59.794;17.616;2023-05-17T14:23:33;0.57;;;0.57;;
56770;SDS011;42641;59.794;17.616;2023-05-17T14:25:59;1.30;;;0.70;;
56770;SDS011;42641;59.794;17.616;2023-05-17T14:28:27;0.60;;;0.60;;
56770;SDS011;42641;59.794;17.616;2023-05-17T14:30:53;0.80;;;0.80;;
56770;SDS011;42641;59.794;17.616;2023-05-17T14:33:20;0.60;;;0.60;;
56770;SDS011;42641;59.794;17.616;2023-05-17T14:35:47;1.80;;;0.63;;
56770;SDS011;42641;59.794;17.616;2023-05-17T14:38:13;1.00;;;0.60;;
56770;SDS011;42641;59.794;17.616;2023-05-17T14:40:39;0.93;;;0.63;;
56770;SDS011;42641;59.794;17.616;2023-05-17T14:43:06;0.80;;;0.73;;
56770;SDS011;42641;59.794;17.616;2023-05-17T14:45:32;0.90;;;0.70;;
56770;SDS011;42641;59.794;17.616;2023-05-17T14:47:58;1.30;;;0.87;;
56770;SDS011;42641;59.794;17.616;2023-05-17T14:50:25;1.67;;;0.80;;
56770;SDS011;42641;59.794;17.616;2023-05-17T14:52:51;0.87;;;0.87;;
56770;SDS011;42641;59.794;17.616;2023-05-17T14:55:18;0.60;;;0.60;;
56770;SDS011;42641;59.794;17.616;2023-05-17T14:57:44;0.67;;;0.67;;
56770;SDS011;42641;59.794;17.616;2023-05-17T15:00:11;1.23;;;0.70;;
56770;SDS011;42641;59.794;17.616;2023-05-17T15:02:38;0.73;;;0.70;;